Terminal Aerodrome Forecast
Issued by NWS

Current Version | Previous Version | Text Only | Print | Product List | Glossary On
Versions: 1 2 3 4 5 6 7 8 9 10 11 12 13 14 15 16 17 18 19 20 21 22 23 24 25
000 FTUS41 KOKX 191120 TAFHPN TAF KHPN 191120Z 1912/2012 04008KT P6SM SKC FM191600 12008KT P6SM SKC FM200600 10010KT P6SM FEW025 BKN120 FM200900 10013KT 6SM -RA SCT025 OVC100 AMD NOT SKED=

USA.gov is the U.S. government's official web portal to all federal, state and local government web resources and services.